Shangchuan Dao, China
Current Conditions -  °F | °C
As of 11:00 PM on Friday 31 Oct 2014 (Local Time) from VMMC Reporting Station
Few Clouds Few Clouds  
Wind Chill: 77°   Ceiling: Unl
Heat Index: 78°   Visibility: 6mi
Dew Point: 72°   Wind: 3mph
Humidity: 83%   Direction: 160°SSE
Pressure: 29.91"   Gusts: NA
Location:  21.73°N, 112.77°E
Report Text: VMMC 311500Z 16003KT 9999 FEW025 25/22 Q1013 NOSIG
Loading
Personal Weather Stations






























Interactive Weather Map
Tropical Storm Tracking
New forecast layout! Learn more

10-Day Weather Forecast

Advertisements
Track Severe Weather on mobile